.
WxDataArchive / Data Records for 2007-03-04
2007-03-03 March 2007 2007-03-05

Data Records for Sunday, 04 March 2007

Time	Temp	Chill	HIndex	Humid	Dewpt	 Wind 	HiWind	WindDir	Rain 	Barom 
-----	----	-----	------	-----	-----	------	------	-------	-----	----- 
00:00	21.8	21.8	21.8	73	14.5	2	4	270	0.00	29.946 
00:05	21.8	21.8	21.8	73	14.5	2	4	248	0.00	29.945 
00:10	21.8	21.8	21.8	73	14.5	2	5	248	0.00	29.945 
00:15	21.6	21.6	21.6	73	14.3	1	4	248	0.00	29.946 
00:20	21.4	21.4	21.4	73	14.1	2	4	248	0.00	29.948 
00:25	21.3	21.3	21.3	73	14.0	2	5	270	0.00	29.949 
00:30	21.1	21.1	21.1	73	13.8	2	6	292	0.00	29.950 
00:35	21.0	21.0	21.0	73	13.7	1	3	270	0.00	29.951 
00:40	20.6	20.6	20.6	73	13.3	2	4	270	0.00	29.951 
00:45	20.5	20.5	20.5	73	13.2	2	4	248	0.00	29.951 
00:50	20.2	20.2	20.2	73	13.0	1	4	248	0.00	29.953 
00:55	20.0	20.0	20.0	73	12.8	2	6	270	0.00	29.954 
01:00	19.9	19.9	19.9	74	13.0	2	4	270	0.00	29.957 
01:05	19.9	19.9	19.9	74	13.0	2	6	270	0.00	29.959 
01:10	19.9	19.9	19.9	75	13.3	2	4	248	0.00	29.963 
01:15	19.9	19.9	19.9	75	13.3	2	4	270	0.00	29.965 
01:20	19.9	19.9	19.9	75	13.3	1	4	270	0.00	29.965 
01:25	19.9	19.9	19.9	75	13.3	2	6	270	0.00	29.966 
01:30	19.9	19.9	19.9	75	13.3	2	6	270	0.00	29.967 
01:35	20.0	20.0	20.0	75	13.4	2	6	270	0.00	29.967 
01:40	20.0	20.0	20.0	75	13.4	2	6	248	0.00	29.969 
01:45	20.0	20.0	20.0	75	13.4	2	5	270	0.00	29.974 
01:50	20.2	20.2	20.2	75	13.6	2	4	270	0.00	29.977 
01:55	20.2	20.2	20.2	75	13.6	2	5	270	0.00	29.975 
02:00	20.2	20.2	20.2	76	13.9	2	6	270	0.00	29.978 
02:05	20.3	20.3	20.3	76	14.0	2	4	248	0.00	29.978 
02:10	20.3	20.3	20.3	76	14.0	2	4	248	0.00	29.979 
02:15	20.5	20.5	20.5	76	14.2	1	4	270	0.00	29.979 
02:20	20.6	20.6	20.6	76	14.3	2	5	292	0.00	29.980 
02:25	20.8	20.8	20.8	76	14.5	1	4	248	0.00	29.981 
02:30	21.0	21.0	21.0	77	14.9	2	5	248	0.00	29.982 
02:35	21.1	21.1	21.1	77	15.0	2	6	270	0.00	29.982 
02:40	21.3	21.3	21.3	77	15.2	2	6	270	0.00	29.983 
02:45	21.4	21.4	21.4	77	15.3	1	6	248	0.00	29.984 
02:50	21.6	21.6	21.6	77	15.5	2	4	248	0.00	29.984 
02:55	21.9	21.9	21.9	77	15.8	2	5	270	0.00	29.985 
03:00	22.1	22.1	22.1	78	16.3	2	5	270	0.00	29.988 
03:05	22.2	22.2	22.2	78	16.4	2	6	270	0.00	29.989 
03:10	22.4	22.4	22.4	78	16.6	2	6	270	0.00	29.987 
03:15	22.4	22.4	22.4	78	16.6	2	6	270	0.00	29.985 
03:20	22.5	22.5	22.5	78	16.7	2	5	270	0.00	29.984 
03:25	22.5	22.5	22.5	78	16.7	3	5	270	0.00	29.985 
03:30	22.5	22.5	22.5	78	16.7	3	6	270	0.00	29.987 
03:35	22.7	22.7	22.7	78	16.9	2	7	270	0.00	29.989 
03:40	22.7	22.7	22.7	78	16.9	2	5	270	0.00	29.988 
03:45	22.7	22.7	22.7	79	17.2	2	6	270	0.00	29.989 
03:50	22.7	22.7	22.7	79	17.2	3	6	270	0.00	29.992 
03:55	22.7	22.7	22.7	79	17.2	3	6	270	0.00	29.993 
04:00	22.7	22.7	22.7	79	17.2	3	6	270	0.00	29.993 
04:05	22.7	22.7	22.7	79	17.2	3	5	270	0.00	29.993 
04:10	22.7	22.7	22.7	79	17.2	3	4	270	0.00	29.994 
04:15	22.7	22.7	22.7	79	17.2	3	4	270	0.00	29.995 
04:20	22.7	22.7	22.7	79	17.2	3	7	270	0.00	29.996 
04:25	22.7	22.7	22.7	79	17.2	3	6	270	0.00	29.996 
04:30	22.7	22.7	22.7	79	17.2	3	5	270	0.00	29.996 
04:35	22.7	22.7	22.7	79	17.2	3	10	270	0.00	29.997 
04:40	22.7	22.7	22.7	79	17.2	3	6	270	0.00	30.002 
04:45	22.5	22.5	22.5	80	17.3	3	6	270	0.00	30.007 
04:50	22.5	22.5	22.5	80	17.3	3	7	270	0.00	30.006 
04:55	22.5	22.5	22.5	81	17.6	2	4	270	0.00	30.008 
05:00	22.5	22.5	22.5	81	17.6	3	5	270	0.00	30.010 
05:05	22.5	22.5	22.5	81	17.6	3	5	270	0.00	30.011 
05:10	22.5	22.5	22.5	81	17.6	2	5	270	0.00	30.011 
05:15	22.5	22.5	22.5	81	17.6	3	6	270	0.00	30.012 
05:20	22.5	22.5	22.5	81	17.6	2	6	270	0.00	30.013 
05:25	22.5	22.5	22.5	81	17.6	2	5	270	0.00	30.014 
05:30	22.5	22.5	22.5	80	17.3	3	6	270	0.00	30.017 
05:35	22.7	22.7	22.7	80	17.5	2	7	270	0.00	30.017 
05:40	22.7	22.7	22.7	80	17.5	3	6	270	0.00	30.021 
05:45	22.7	22.7	22.7	79	17.2	3	6	248	0.00	30.023 
05:50	22.7	22.7	22.7	79	17.2	3	6	270	0.00	30.024 
05:55	22.7	22.7	22.7	79	17.2	3	6	270	0.00	30.024 
06:00	22.7	22.7	22.7	79	17.2	3	6	270	0.00	30.024 
06:05	22.7	22.7	22.7	79	17.2	3	6	270	0.00	30.027 
06:10	22.7	22.7	22.7	79	17.2	3	7	270	0.00	30.028 
06:15	22.7	22.7	22.7	79	17.2	3	7	270	0.00	30.026 
06:20	22.7	22.7	22.7	79	17.2	2	6	270	0.00	30.028 
06:25	22.5	22.5	22.5	79	17.0	3	6	270	0.00	30.027 
06:30	22.5	22.5	22.5	79	17.0	3	7	270	0.00	30.027 
06:35	22.4	22.4	22.4	80	17.2	3	10	270	0.00	30.027 
06:40	22.4	22.4	22.4	79	16.9	3	9	270	0.00	30.027 
06:45	22.4	22.4	22.4	79	16.9	2	5	270	0.00	30.030 
06:50	22.2	22.2	22.2	79	16.7	2	6	270	0.00	30.030 
06:55	22.2	22.2	22.2	79	16.7	3	6	270	0.00	30.031 
07:00	22.2	22.2	22.2	79	16.7	2	5	270	0.00	30.030 
07:05	22.2	22.2	22.2	79	16.7	2	5	270	0.00	30.031 
07:10	22.2	22.2	22.2	79	16.7	2	5	270	0.00	30.031 
07:15	22.2	22.2	22.2	79	16.7	2	4	270	0.00	30.031 
07:20	22.2	22.2	22.2	79	16.7	2	9	248	0.00	30.032 
07:25	22.2	22.2	22.2	78	16.4	2	5	270	0.00	30.033 
07:30	22.2	22.2	22.2	78	16.4	3	6	270	0.00	30.036 
07:35	22.4	22.4	22.4	78	16.6	3	6	270	0.00	30.038 
07:40	22.4	22.4	22.4	78	16.6	3	5	270	0.00	30.045 
07:45	22.4	22.4	22.4	77	16.3	2	5	270	0.00	30.050 
07:50	22.5	22.5	22.5	77	16.4	2	4	270	0.00	30.051 
07:55	22.5	22.5	22.5	77	16.4	3	7	270	0.00	30.051 
08:00	22.5	22.5	22.5	77	16.4	2	4	270	0.00	30.055 
08:05	22.7	22.7	22.7	77	16.6	2	6	270	0.00	30.059 
08:10	22.7	22.7	22.7	76	16.3	2	4	248	0.00	30.062 
08:15	22.5	22.5	22.5	74	15.5	3	7	248	0.00	30.062 
08:20	22.4	22.4	22.4	74	15.4	3	6	270	0.00	30.062 
08:25	22.2	22.2	22.2	74	15.2	3	6	270	0.00	30.062 
08:30	22.2	22.2	22.2	73	14.9	2	6	270	0.00	30.064 
08:35	22.2	22.2	22.2	73	14.9	2	4	270	0.00	30.065 
08:40	21.9	21.9	21.9	72	14.3	3	11	270	0.00	30.066 
08:45	21.8	21.8	21.8	72	14.2	3	11	270	0.00	30.067 
08:50	21.6	21.6	21.6	72	14.0	2	6	270	0.00	30.072 
08:55	21.3	21.3	21.3	72	13.7	2	5	270	0.00	30.077 
09:00	21.6	21.6	21.6	72	14.0	2	5	270	0.00	30.079 
09:05	21.8	21.8	21.8	71	13.9	2	4	270	0.00	30.080 
09:10	21.9	21.9	21.9	71	14.0	2	7	270	0.00	30.080 
09:15	22.2	22.2	22.2	70	13.9	3	9	270	0.00	30.082 
09:20	22.5	22.5	22.5	69	13.9	3	9	248	0.00	30.084 
09:25	22.7	22.7	22.7	69	14.1	3	6	248	0.00	30.086 
09:30	23.0	23.0	23.0	68	14.0	3	7	270	0.00	30.094 
09:35	23.3	23.3	23.3	69	14.7	3	6	270	0.00	30.094 
09:40	23.5	23.5	23.5	68	14.5	3	7	248	0.00	30.094 
09:45	23.8	23.8	23.8	68	14.8	2	9	270	0.00	30.093 
09:50	23.6	18.4	23.6	66	13.9	4	9	270	0.00	30.094 
09:55	23.8	23.8	23.8	67	14.5	3	6	270	0.00	30.097 
10:00	24.4	24.4	24.4	66	14.7	2	6	270	0.00	30.103 
10:05	24.2	19.1	24.2	65	14.2	4	12	270	0.00	30.106 
10:10	24.2	24.2	24.2	67	14.8	3	7	270	0.00	30.106 
10:15	24.4	19.3	24.4	67	15.0	4	11	270	0.00	30.110 
10:20	24.4	19.3	24.4	67	15.0	4	10	270	0.00	30.111 
10:25	24.4	24.4	24.4	67	15.0	3	8	270	0.00	30.113 
10:30	24.5	19.4	24.5	67	15.1	4	12	270	0.00	30.109 
10:35	24.5	19.4	24.5	67	15.1	4	7	270	0.00	30.110 
10:40	24.7	19.6	24.7	67	15.3	4	11	270	0.00	30.110 
10:45	24.8	19.8	24.8	67	15.4	4	10	270	0.00	30.109 
10:50	25.0	20.0	25.0	66	15.3	4	7	270	0.00	30.109 
10:55	25.3	20.3	25.3	66	15.6	4	11	270	0.00	30.110 
11:00	25.6	20.7	25.6	65	15.5	4	10	270	0.00	30.111 
11:05	25.7	25.7	25.7	66	15.9	3	9	270	0.00	30.111 
11:10	26.0	21.1	26.0	64	15.5	4	11	270	0.01	30.110 
11:15	26.0	21.1	26.0	64	15.5	4	10	270	0.00	30.106 
11:20	26.1	21.3	26.1	63	15.3	4	12	270	0.00	30.105 
11:25	26.4	21.6	26.4	64	15.9	4	10	270	0.00	30.101 
11:30	26.6	20.7	26.6	64	16.1	5	13	270	0.00	30.102 
11:35	27.0	27.0	27.0	62	15.7	3	7	270	0.00	30.099 
11:40	27.0	22.3	27.0	62	15.7	4	8	270	0.00	30.095 
11:45	27.2	22.5	27.2	63	16.3	4	11	270	0.00	30.099 
11:50	27.5	22.9	27.5	63	16.6	4	11	270	0.00	30.101 
11:55	27.6	23.0	27.6	61	15.9	4	11	270	0.00	30.099 
12:00	27.3	22.6	27.3	62	16.0	4	12	270	0.00	30.094 
12:05	27.0	22.3	27.0	62	15.7	4	11	270	0.00	30.098 
12:10	27.5	27.5	27.5	62	16.2	3	7	270	0.00	30.097 
12:15	28.1	23.6	28.1	62	16.8	4	10	270	0.00	30.093 
12:20	27.8	22.1	27.8	58	15.0	5	15	248	0.00	30.093 
12:25	27.5	22.9	27.5	61	15.8	4	9	270	0.00	30.092 
12:30	27.5	27.5	27.5	60	15.5	3	9	270	0.00	30.087 
12:35	27.9	23.3	27.9	59	15.5	4	12	248	0.00	30.084 
12:40	27.9	23.3	27.9	61	16.2	4	12	270	0.00	30.082 
12:45	27.9	22.3	27.9	59	15.5	5	17	270	0.00	30.077 
12:50	28.5	24.0	28.5	59	16.0	4	10	270	0.00	30.075 
12:55	28.2	23.7	28.2	59	15.7	4	12	270	0.00	30.076 
13:00	28.4	22.8	28.4	57	15.1	5	12	270	0.00	30.075 
13:05	28.5	24.0	28.5	60	16.4	4	13	270	0.00	30.076 
13:10	28.7	24.3	28.7	58	15.8	4	10	270	0.00	30.076 
13:15	28.8	24.4	28.8	58	15.9	4	10	270	0.00	30.076 
13:20	29.0	29.0	29.0	58	16.1	3	10	270	0.00	30.074 
13:25	28.5	23.0	28.5	58	15.6	5	15	270	0.00	30.079 
13:30	28.7	23.2	28.7	58	15.8	5	14	270	0.00	30.075 
13:35	29.0	23.6	29.0	58	16.1	5	11	270	0.00	30.075 
13:40	29.1	23.7	29.1	57	15.8	5	12	270	0.00	30.077 
13:45	29.0	24.6	29.0	60	16.9	4	13	270	0.00	30.075 
13:50	29.5	24.1	29.5	57	16.2	5	13	270	0.00	30.076 
13:55	29.4	25.1	29.4	58	16.5	4	12	270	0.00	30.071 
14:00	29.7	24.4	29.7	57	16.4	5	10	270	0.00	30.069 
14:05	30.0	25.8	30.0	58	17.0	4	9	270	0.00	30.070 
14:10	30.1	24.8	30.1	56	16.3	5	14	270	0.00	30.067 
14:15	29.8	25.5	29.8	56	16.0	4	11	270	0.00	30.066 
14:20	29.7	25.4	29.7	57	16.4	4	10	270	0.00	30.072 
14:25	30.1	25.9	30.1	56	16.3	4	10	270	0.00	30.069 
14:30	29.8	24.5	29.8	57	16.4	5	14	270	0.00	30.067 
14:35	29.7	24.4	29.7	57	16.4	5	14	270	0.00	30.064 
14:40	29.8	23.6	29.8	55	15.6	6	16	270	0.00	30.060 
14:45	29.7	24.4	29.7	55	15.5	5	11	270	0.00	30.059 
14:50	29.8	24.5	29.8	58	16.8	5	10	270	0.00	30.061 
14:55	30.0	24.7	30.0	57	16.6	5	13	270	0.00	30.063 
15:00	30.0	25.8	30.0	57	16.6	4	11	270	0.00	30.058 
15:05	30.0	24.7	30.0	55	15.8	5	13	270	0.00	30.056 
15:10	29.8	24.5	29.8	56	16.0	5	13	270	0.00	30.056 
15:15	30.7	25.5	30.7	55	16.5	5	18	270	0.00	30.051 
15:20	30.1	23.2	30.1	54	15.5	7	19	270	0.00	30.051 
15:25	30.4	24.3	30.4	54	15.8	6	16	248	0.00	30.049 
15:30	30.6	25.4	30.6	54	16.0	5	13	270	0.00	30.048 
15:35	30.6	25.4	30.6	52	15.1	5	12	270	0.00	30.045 
15:40	30.4	25.2	30.4	54	15.8	5	13	270	0.00	30.049 
15:45	30.7	26.6	30.7	54	16.0	4	12	270	0.00	30.041 
15:50	30.7	26.6	30.7	54	16.0	4	10	270	0.00	30.041 
15:55	30.0	24.7	30.0	55	15.8	5	13	270	0.00	30.043 
16:00	30.1	25.9	30.1	55	15.9	4	9	270	0.00	30.042 
16:05	30.0	24.7	30.0	54	15.4	5	10	270	0.00	30.044 
16:10	30.1	25.9	30.1	55	15.9	4	11	270	0.00	30.046 
16:15	29.7	25.4	29.7	58	16.8	4	12	270	0.00	30.048 
16:20	30.1	24.8	30.1	56	16.3	5	16	270	0.00	30.050 
16:25	30.1	25.9	30.1	56	16.3	4	12	270	0.00	30.052 
16:30	29.8	24.5	29.8	56	16.0	5	12	270	0.00	30.056 
16:35	29.8	24.5	29.8	57	16.4	5	15	270	0.00	30.056 
16:40	29.5	22.5	29.5	57	16.2	7	15	270	0.00	30.057 
16:45	29.4	24.0	29.4	58	16.5	5	15	270	0.00	30.057 
16:50	29.4	23.1	29.4	57	16.1	6	15	270	0.00	30.057 
16:55	29.4	24.0	29.4	58	16.5	5	12	270	0.00	30.057 
17:00	29.8	29.8	29.8	59	17.2	3	7	270	0.00	30.056 
17:05	29.5	23.3	29.5	57	16.2	6	14	270	0.00	30.054 
17:10	29.5	24.1	29.5	58	16.6	5	13	270	0.00	30.055 
17:15	29.5	25.2	29.5	58	16.6	4	9	270	0.00	30.051 
17:20	29.7	23.5	29.7	58	16.8	6	16	270	0.00	30.048 
17:25	29.5	24.1	29.5	59	17.0	5	14	270	0.00	30.044 
17:30	29.4	25.1	29.4	59	16.9	4	10	270	0.00	30.041 
17:35	29.3	25.0	29.3	59	16.8	4	14	270	0.00	30.042 
17:40	29.3	23.0	29.3	59	16.8	6	14	248	0.00	30.042 
17:45	29.1	22.8	29.1	59	16.6	6	14	270	0.00	30.048 
17:50	29.1	24.7	29.1	61	17.4	4	13	270	0.00	30.047 
17:55	29.1	23.7	29.1	60	17.0	5	12	270	0.00	30.051 
18:00	29.0	24.6	29.0	61	17.3	4	9	270	0.00	30.047 
18:05	28.8	24.4	28.8	62	17.4	4	10	270	0.00	30.049 
18:10	28.8	24.4	28.8	62	17.4	4	10	270	0.00	30.046 
18:15	28.7	24.3	28.7	62	17.4	4	15	270	0.00	30.046 
18:20	28.7	22.3	28.7	62	17.4	6	17	270	0.00	30.043 
18:25	28.5	22.1	28.5	62	17.2	6	16	270	0.00	30.043 
18:30	28.5	23.0	28.5	63	17.5	5	14	270	0.00	30.044 
18:35	28.4	22.8	28.4	63	17.4	5	17	270	0.00	30.044 
18:40	28.2	23.7	28.2	64	17.6	4	14	270	0.00	30.044 
18:45	28.2	23.7	28.2	64	17.6	4	13	270	0.00	30.046 
18:50	28.1	22.5	28.1	64	17.5	5	13	270	0.00	30.045 
18:55	28.2	21.7	28.2	64	17.6	6	14	270	0.00	30.044 
19:00	28.1	23.6	28.1	65	17.9	4	12	270	0.00	30.042 
19:05	28.1	23.6	28.1	65	17.9	4	11	270	0.00	30.042 
19:10	27.9	23.3	27.9	66	18.0	4	12	270	0.00	30.044 
19:15	27.8	27.8	27.8	66	17.9	3	11	270	0.00	30.043 
19:20	27.8	23.2	27.8	66	17.9	4	12	270	0.00	30.043 
19:25	27.8	27.8	27.8	67	18.3	3	10	270	0.00	30.044 
19:30	27.8	23.2	27.8	67	18.3	4	10	248	0.00	30.043 
19:35	27.8	27.8	27.8	67	18.3	3	9	248	0.00	30.044 
19:40	27.6	23.0	27.6	68	18.4	4	9	270	0.00	30.043 
19:45	27.6	21.9	27.6	68	18.4	5	15	270	0.00	30.042 
19:50	27.8	23.2	27.8	68	18.6	4	19	270	0.00	30.042 
19:55	27.8	21.2	27.8	68	18.6	6	14	270	0.00	30.041 
20:00	27.8	23.2	27.8	68	18.6	4	12	270	0.00	30.042 
20:05	27.8	23.2	27.8	68	18.6	4	13	248	0.00	30.041 
20:10	27.8	22.1	27.8	68	18.6	5	11	270	0.00	30.040 
20:15	27.8	23.2	27.8	68	18.6	4	10	270	0.00	30.040 
20:20	27.8	23.2	27.8	68	18.6	4	12	270	0.00	30.041 
20:25	27.8	27.8	27.8	69	19.0	3	11	270	0.00	30.040 
20:30	27.6	21.9	27.6	69	18.8	5	17	248	0.00	30.033 
20:35	27.6	23.0	27.6	69	18.8	4	10	248	0.00	30.029 
20:40	27.6	23.0	27.6	69	18.8	4	13	248	0.00	30.031 
20:45	27.8	21.2	27.8	69	19.0	6	16	270	0.00	30.030 
20:50	27.9	21.3	27.9	69	19.1	6	16	270	0.00	30.027 
20:55	27.9	21.3	27.9	69	19.1	6	14	270	0.00	30.029 
21:00	27.9	22.3	27.9	69	19.1	5	13	270	0.00	30.029 
21:05	27.9	21.3	27.9	69	19.1	6	13	270	0.00	30.025 
21:10	28.1	22.5	28.1	69	19.3	5	13	270	0.00	30.025 
21:15	28.1	22.5	28.1	69	19.3	5	13	248	0.00	30.025 
21:20	28.1	21.6	28.1	69	19.3	6	16	270	0.00	30.026 
21:25	28.1	22.5	28.1	69	19.3	5	12	270	0.00	30.024 
21:30	28.2	21.7	28.2	69	19.4	6	16	270	0.00	30.024 
21:35	28.1	22.5	28.1	70	19.6	5	16	270	0.00	30.024 
21:40	28.1	23.6	28.1	70	19.6	4	9	270	0.00	30.023 
21:45	28.2	21.7	28.2	70	19.7	6	17	270	0.00	30.024 
21:50	28.2	21.7	28.2	69	19.4	6	14	270	0.00	30.024 
21:55	28.2	23.7	28.2	70	19.7	4	12	270	0.00	30.022 
22:00	28.2	22.6	28.2	70	19.7	5	16	270	0.00	30.024 
22:05	28.2	23.7	28.2	70	19.7	4	11	270	0.00	30.019 
22:10	28.2	22.6	28.2	70	19.7	5	12	270	0.00	30.020 
22:15	28.2	23.7	28.2	70	19.7	4	12	270	0.00	30.019 
22:20	28.2	23.7	28.2	70	19.7	4	12	270	0.00	30.021 
22:25	28.2	23.7	28.2	70	19.7	4	10	270	0.00	30.021 
22:30	28.2	23.7	28.2	70	19.7	4	10	270	0.00	30.018 
22:35	28.1	28.1	28.1	71	19.9	3	7	270	0.00	30.016 
22:40	28.2	22.6	28.2	71	20.0	5	12	270	0.00	30.010 
22:45	28.2	23.7	28.2	70	19.7	4	14	270	0.00	30.008 
22:50	28.2	22.6	28.2	70	19.7	5	12	270	0.00	30.006 
22:55	28.2	22.6	28.2	70	19.7	5	11	270	0.00	30.005 
23:00	28.2	23.7	28.2	70	19.7	4	10	270	0.00	30.000 
23:05	28.4	22.8	28.4	70	19.9	5	13	270	0.00	29.997 
23:10	28.4	23.9	28.4	70	19.9	4	13	270	0.00	29.994 
23:15	28.4	22.8	28.4	70	19.9	5	13	270	0.00	29.992 
23:20	28.4	22.8	28.4	70	19.9	5	14	270	0.00	29.992 
23:25	28.5	23.0	28.5	70	20.0	5	13	270	0.00	29.990 
23:30	28.4	28.4	28.4	70	19.9	3	11	270	0.00	29.992 
23:35	28.5	24.0	28.5	70	20.0	4	10	270	0.00	29.990 
23:40	28.5	24.0	28.5	70	20.0	4	10	270	0.00	29.993 
23:45	28.7	24.3	28.7	70	20.2	4	9	270	0.00	29.995 
23:50	28.7	23.2	28.7	70	20.2	5	11	270	0.00	29.994 
23:55	28.8	24.4	28.8	70	20.3	4	14	270	0.00	29.994 

CoCoRaHS
IN-AL-39
A2 Web Hosting
Creative Commons License
GoDaddy
Look for:

loaded 2017-10-18 07:25:50 • last modified 2010-11-18 10:43:29
Privacy PolicyDisclaimer
• wx.awcolley.com is powered by PmWiki v.2002016 •
• all content (unless otherwise noted) © 2017 A W Colley